sensor_id;sensor_type;location;lat;lon;timestamp;P1;durP1;ratioP1;P2;durP2;ratioP2
47896;SDS011;39629;51.400;5.494;2022-07-09T00:01:09;3.20;;;2.20;;
47896;SDS011;39629;51.400;5.494;2022-07-09T00:06:12;4.25;;;2.10;;
47896;SDS011;39629;51.400;5.494;2022-07-09T00:11:14;3.63;;;2.13;;
47896;SDS011;39629;51.400;5.494;2022-07-09T00:16:16;4.60;;;3.00;;
47896;SDS011;39629;51.400;5.494;2022-07-09T00:21:18;4.95;;;2.17;;
47896;SDS011;39629;51.400;5.494;2022-07-09T00:26:20;2.80;;;2.40;;
47896;SDS011;39629;51.400;5.494;2022-07-09T00:31:22;2.97;;;2.10;;
47896;SDS011;39629;51.400;5.494;2022-07-09T00:36:25;3.40;;;2.30;;
47896;SDS011;39629;51.400;5.494;2022-07-09T00:41:26;3.17;;;2.45;;
47896;SDS011;39629;51.400;5.494;2022-07-09T00:46:28;3.15;;;1.55;;
47896;SDS011;39629;51.400;5.494;2022-07-09T00:51:31;3.17;;;2.05;;
47896;SDS011;39629;51.400;5.494;2022-07-09T00:56:33;2.83;;;1.70;;
47896;SDS011;39629;51.400;5.494;2022-07-09T01:01:35;5.45;;;1.98;;
47896;SDS011;39629;51.400;5.494;2022-07-09T01:06:38;3.35;;;2.28;;
47896;SDS011;39629;51.400;5.494;2022-07-09T01:11:40;3.67;;;1.90;;
47896;SDS011;39629;51.400;5.494;2022-07-09T01:16:42;2.72;;;1.98;;
47896;SDS011;39629;51.400;5.494;2022-07-09T01:21:45;3.53;;;1.70;;
47896;SDS011;39629;51.400;5.494;2022-07-09T01:26:46;2.97;;;2.17;;
47896;SDS011;39629;51.400;5.494;2022-07-09T01:31:48;4.22;;;2.40;;
47896;SDS011;39629;51.400;5.494;2022-07-09T01:36:51;3.30;;;2.30;;
47896;SDS011;39629;51.400;5.494;2022-07-09T01:41:53;2.10;;;1.63;;
47896;SDS011;39629;51.400;5.494;2022-07-09T01:46:54;4.45;;;2.22;;
47896;SDS011;39629;51.400;5.494;2022-07-09T01:51:57;5.60;;;1.90;;
47896;SDS011;39629;51.400;5.494;2022-07-09T01:56:59;3.30;;;2.05;;
47896;SDS011;39629;51.400;5.494;2022-07-09T02:02:00;4.50;;;2.30;;
47896;SDS011;39629;51.400;5.494;2022-07-09T02:07:04;2.53;;;1.55;;
47896;SDS011;39629;51.400;5.494;2022-07-09T02:12:06;2.35;;;1.67;;
47896;SDS011;39629;51.400;5.494;2022-07-09T02:17:08;3.05;;;2.08;;
47896;SDS011;39629;51.400;5.494;2022-07-09T02:22:11;3.75;;;2.30;;
47896;SDS011;39629;51.400;5.494;2022-07-09T02:27:13;3.38;;;1.98;;
47896;SDS011;39629;51.400;5.494;2022-07-09T02:32:14;3.88;;;2.50;;
47896;SDS011;39629;51.400;5.494;2022-07-09T02:37:17;3.50;;;2.75;;
47896;SDS011;39629;51.400;5.494;2022-07-09T02:42:19;2.72;;;2.25;;
47896;SDS011;39629;51.400;5.494;2022-07-09T02:47:20;4.88;;;2.40;;
47896;SDS011;39629;51.400;5.494;2022-07-09T02:52:23;2.47;;;2.10;;
47896;SDS011;39629;51.400;5.494;2022-07-09T02:57:25;2.65;;;2.45;;
47896;SDS011;39629;51.400;5.494;2022-07-09T03:02:27;2.70;;;2.30;;
47896;SDS011;39629;51.400;5.494;2022-07-09T03:07:30;3.58;;;2.40;;
47896;SDS011;39629;51.400;5.494;2022-07-09T03:12:31;4.43;;;2.58;;
47896;SDS011;39629;51.400;5.494;2022-07-09T03:17:33;5.32;;;2.40;;
47896;SDS011;39629;51.400;5.494;2022-07-09T03:22:36;4.82;;;3.45;;
47896;SDS011;39629;51.400;5.494;2022-07-09T03:27:38;3.47;;;2.67;;
47896;SDS011;39629;51.400;5.494;2022-07-09T03:32:39;2.90;;;2.25;;
47896;SDS011;39629;51.400;5.494;2022-07-09T03:37:42;4.15;;;2.33;;
47896;SDS011;39629;51.400;5.494;2022-07-09T03:42:43;4.20;;;3.03;;
47896;SDS011;39629;51.400;5.494;2022-07-09T03:47:45;4.47;;;3.20;;
47896;SDS011;39629;51.400;5.494;2022-07-09T03:52:49;3.85;;;2.78;;
47896;SDS011;39629;51.400;5.494;2022-07-09T03:57:51;6.65;;;3.80;;
47896;SDS011;39629;51.400;5.494;2022-07-09T04:02:53;5.15;;;3.47;;
47896;SDS011;39629;51.400;5.494;2022-07-09T04:07:56;3.65;;;3.00;;
47896;SDS011;39629;51.400;5.494;2022-07-09T04:12:58;4.27;;;3.17;;
47896;SDS011;39629;51.400;5.494;2022-07-09T04:18:00;3.42;;;2.92;;
47896;SDS011;39629;51.400;5.494;2022-07-09T04:23:03;4.15;;;3.30;;
47896;SDS011;39629;51.400;5.494;2022-07-09T04:28:04;3.67;;;2.65;;
47896;SDS011;39629;51.400;5.494;2022-07-09T04:33:06;5.43;;;3.70;;
47896;SDS011;39629;51.400;5.494;2022-07-09T04:38:10;5.75;;;3.78;;
47896;SDS011;39629;51.400;5.494;2022-07-09T04:48:13;7.00;;;4.47;;
47896;SDS011;39629;51.400;5.494;2022-07-09T04:53:16;6.85;;;5.32;;
47896;SDS011;39629;51.400;5.494;2022-07-09T04:58:18;7.80;;;5.18;;
47896;SDS011;39629;51.400;5.494;2022-07-09T05:03:20;6.43;;;4.07;;
47896;SDS011;39629;51.400;5.494;2022-07-09T05:08:22;6.57;;;4.70;;
47896;SDS011;39629;51.400;5.494;2022-07-09T05:13:24;7.60;;;5.90;;
47896;SDS011;39629;51.400;5.494;2022-07-09T05:18:26;11.10;;;7.60;;
47896;SDS011;39629;51.400;5.494;2022-07-09T05:23:30;19.88;;;12.13;;
47896;SDS011;39629;51.400;5.494;2022-07-09T05:28:32;20.20;;;10.98;;
47896;SDS011;39629;51.400;5.494;2022-07-09T05:33:34;18.15;;;11.77;;
47896;SDS011;39629;51.400;5.494;2022-07-09T05:38:36;9.52;;;5.90;;
47896;SDS011;39629;51.400;5.494;2022-07-09T05:43:38;19.98;;;12.30;;
47896;SDS011;39629;51.400;5.494;2022-07-09T05:48:40;22.00;;;13.60;;
47896;SDS011;39629;51.400;5.494;2022-07-09T05:53:42;21.17;;;13.70;;
47896;SDS011;39629;51.400;5.494;2022-07-09T05:58:44;24.95;;;15.00;;
47896;SDS011;39629;51.400;5.494;2022-07-09T06:03:46;25.42;;;14.88;;
47896;SDS011;39629;51.400;5.494;2022-07-09T06:08:49;20.42;;;12.55;;
47896;SDS011;39629;51.400;5.494;2022-07-09T06:13:50;19.35;;;12.30;;
47896;SDS011;39629;51.400;5.494;2022-07-09T06:18:52;14.57;;;9.15;;
47896;SDS011;39629;51.400;5.494;2022-07-09T06:23:55;26.08;;;14.68;;
47896;SDS011;39629;51.400;5.494;2022-07-09T06:28:56;23.27;;;14.50;;
47896;SDS011;39629;51.400;5.494;2022-07-09T06:33:58;22.77;;;14.40;;
47896;SDS011;39629;51.400;5.494;2022-07-09T06:39:01;23.63;;;14.20;;
47896;SDS011;39629;51.400;5.494;2022-07-09T06:44:20;15.50;;;10.68;;
47896;SDS011;39629;51.400;5.494;2022-07-09T06:49:22;20.75;;;11.52;;
47896;SDS011;39629;51.400;5.494;2022-07-09T06:54:24;21.10;;;11.10;;
47896;SDS011;39629;51.400;5.494;2022-07-09T06:59:26;16.83;;;11.20;;
47896;SDS011;39629;51.400;5.494;2022-07-09T07:04:28;19.42;;;11.88;;
47896;SDS011;39629;51.400;5.494;2022-07-09T07:09:31;15.90;;;10.75;;
47896;SDS011;39629;51.400;5.494;2022-07-09T07:14:32;12.68;;;8.48;;
47896;SDS011;39629;51.400;5.494;2022-07-09T07:19:34;16.95;;;10.18;;
47896;SDS011;39629;51.400;5.494;2022-07-09T07:24:37;14.80;;;9.48;;
47896;SDS011;39629;51.400;5.494;2022-07-09T07:29:39;16.13;;;10.25;;
47896;SDS011;39629;51.400;5.494;2022-07-09T07:34:41;16.25;;;9.70;;
47896;SDS011;39629;51.400;5.494;2022-07-09T07:39:44;15.73;;;9.73;;
47896;SDS011;39629;51.400;5.494;2022-07-09T07:44:47;16.85;;;9.00;;
47896;SDS011;39629;51.400;5.494;2022-07-09T07:49:49;11.02;;;7.47;;
47896;SDS011;39629;51.400;5.494;2022-07-09T07:54:53;8.38;;;5.80;;
47896;SDS011;39629;51.400;5.494;2022-07-09T07:59:55;9.43;;;5.43;;
47896;SDS011;39629;51.400;5.494;2022-07-09T08:04:57;8.52;;;5.63;;
47896;SDS011;39629;51.400;5.494;2022-07-09T08:10:00;10.43;;;6.03;;
47896;SDS011;39629;51.400;5.494;2022-07-09T08:15:02;10.70;;;6.15;;
47896;SDS011;39629;51.400;5.494;2022-07-09T08:20:05;8.18;;;5.88;;
47896;SDS011;39629;51.400;5.494;2022-07-09T08:25:08;11.02;;;6.78;;
47896;SDS011;39629;51.400;5.494;2022-07-09T08:30:10;14.23;;;6.47;;
47896;SDS011;39629;51.400;5.494;2022-07-09T08:35:11;8.68;;;5.57;;
47896;SDS011;39629;51.400;5.494;2022-07-09T08:40:14;9.10;;;5.80;;
47896;SDS011;39629;51.400;5.494;2022-07-09T08:45:16;8.43;;;5.28;;
47896;SDS011;39629;51.400;5.494;2022-07-09T08:50:19;6.40;;;4.70;;
47896;SDS011;39629;51.400;5.494;2022-07-09T08:55:24;8.95;;;6.60;;
47896;SDS011;39629;51.400;5.494;2022-07-09T09:00:25;6.95;;;4.55;;
47896;SDS011;39629;51.400;5.494;2022-07-09T09:05:27;6.82;;;4.78;;
47896;SDS011;39629;51.400;5.494;2022-07-09T09:10:30;6.10;;;4.28;;
47896;SDS011;39629;51.400;5.494;2022-07-09T09:15:32;7.45;;;4.20;;
47896;SDS011;39629;51.400;5.494;2022-07-09T09:20:33;6.40;;;4.63;;
47896;SDS011;39629;51.400;5.494;2022-07-09T09:25:37;9.33;;;5.87;;
47896;SDS011;39629;51.400;5.494;2022-07-09T09:30:40;9.43;;;5.95;;
47896;SDS011;39629;51.400;5.494;2022-07-09T09:35:43;9.05;;;7.20;;
47896;SDS011;39629;51.400;5.494;2022-07-09T09:40:46;10.73;;;7.40;;
47896;SDS011;39629;51.400;5.494;2022-07-09T09:45:48;10.23;;;7.07;;
47896;SDS011;39629;51.400;5.494;2022-07-09T09:50:53;11.18;;;9.20;;
47896;SDS011;39629;51.400;5.494;2022-07-09T09:56:01;11.95;;;9.68;;
47896;SDS011;39629;51.400;5.494;2022-07-09T10:01:03;11.80;;;7.57;;
47896;SDS011;39629;51.400;5.494;2022-07-09T10:06:05;12.25;;;8.88;;
47896;SDS011;39629;51.400;5.494;2022-07-09T10:11:09;10.00;;;8.40;;
47896;SDS011;39629;51.400;5.494;2022-07-09T10:16:10;11.02;;;9.20;;
47896;SDS011;39629;51.400;5.494;2022-07-09T10:21:12;11.35;;;8.77;;
47896;SDS011;39629;51.400;5.494;2022-07-09T10:26:15;8.55;;;6.97;;
47896;SDS011;39629;51.400;5.494;2022-07-09T10:31:18;8.13;;;5.72;;
47896;SDS011;39629;51.400;5.494;2022-07-09T10:36:24;9.60;;;7.65;;
47896;SDS011;39629;51.400;5.494;2022-07-09T10:41:27;9.03;;;7.10;;
47896;SDS011;39629;51.400;5.494;2022-07-09T10:46:29;10.23;;;6.97;;
47896;SDS011;39629;51.400;5.494;2022-07-09T10:51:31;8.88;;;6.53;;
47896;SDS011;39629;51.400;5.494;2022-07-09T10:56:34;8.35;;;5.88;;
47896;SDS011;39629;51.400;5.494;2022-07-09T11:01:37;5.22;;;4.50;;
47896;SDS011;39629;51.400;5.494;2022-07-09T11:06:45;5.78;;;3.70;;
47896;SDS011;39629;51.400;5.494;2022-07-09T11:11:49;4.75;;;3.60;;
47896;SDS011;39629;51.400;5.494;2022-07-09T11:22:02;3.30;;;2.58;;
47896;SDS011;39629;51.400;5.494;2022-07-09T11:27:05;4.32;;;2.42;;
47896;SDS011;39629;51.400;5.494;2022-07-09T11:32:08;4.18;;;2.15;;
47896;SDS011;39629;51.400;5.494;2022-07-09T11:37:21;3.20;;;1.80;;
47896;SDS011;39629;51.400;5.494;2022-07-09T11:42:25;3.35;;;1.98;;
47896;SDS011;39629;51.400;5.494;2022-07-09T11:47:33;3.35;;;1.50;;
47896;SDS011;39629;51.400;5.494;2022-07-09T11:52:36;3.58;;;1.08;;
47896;SDS011;39629;51.400;5.494;2022-07-09T11:57:49;3.27;;;1.20;;
47896;SDS011;39629;51.400;5.494;2022-07-09T12:02:52;1.52;;;0.93;;
47896;SDS011;39629;51.400;5.494;2022-07-09T12:07:54;5.50;;;1.00;;
47896;SDS011;39629;51.400;5.494;2022-07-09T12:12:57;1.38;;;0.80;;
47896;SDS011;39629;51.400;5.494;2022-07-09T12:18:00;1.23;;;0.70;;
47896;SDS011;39629;51.400;5.494;2022-07-09T12:23:02;1.25;;;0.73;;
47896;SDS011;39629;51.400;5.494;2022-07-09T12:28:05;2.03;;;0.60;;
47896;SDS011;39629;51.400;5.494;2022-07-09T12:33:07;1.98;;;0.63;;
47896;SDS011;39629;51.400;5.494;2022-07-09T12:38:08;2.58;;;0.80;;
47896;SDS011;39629;51.400;5.494;2022-07-09T12:43:11;3.05;;;0.70;;
47896;SDS011;39629;51.400;5.494;2022-07-09T12:48:13;2.55;;;1.17;;
47896;SDS011;39629;51.400;5.494;2022-07-09T12:53:14;1.33;;;0.70;;
47896;SDS011;39629;51.400;5.494;2022-07-09T12:58:17;1.60;;;0.60;;
47896;SDS011;39629;51.400;5.494;2022-07-09T13:03:19;1.30;;;0.70;;
47896;SDS011;39629;51.400;5.494;2022-07-09T13:08:20;1.13;;;0.60;;
47896;SDS011;39629;51.400;5.494;2022-07-09T13:13:23;1.90;;;0.60;;
47896;SDS011;39629;51.400;5.494;2022-07-09T13:18:24;1.80;;;0.55;;
47896;SDS011;39629;51.400;5.494;2022-07-09T13:23:26;1.63;;;0.60;;
47896;SDS011;39629;51.400;5.494;2022-07-09T13:28:29;1.70;;;0.50;;
47896;SDS011;39629;51.400;5.494;2022-07-09T13:33:31;1.80;;;0.50;;
47896;SDS011;39629;51.400;5.494;2022-07-09T13:38:32;1.47;;;0.80;;
47896;SDS011;39629;51.400;5.494;2022-07-09T13:43:36;1.13;;;0.50;;
47896;SDS011;39629;51.400;5.494;2022-07-09T13:48:37;1.15;;;0.45;;
47896;SDS011;39629;51.400;5.494;2022-07-09T13:53:39;1.33;;;0.50;;
47896;SDS011;39629;51.400;5.494;2022-07-09T13:58:44;1.13;;;0.50;;
47896;SDS011;39629;51.400;5.494;2022-07-09T14:03:45;0.75;;;0.50;;
47896;SDS011;39629;51.400;5.494;2022-07-09T14:08:47;0.95;;;0.43;;
47896;SDS011;39629;51.400;5.494;2022-07-09T14:13:50;2.30;;;0.53;;
47896;SDS011;39629;51.400;5.494;2022-07-09T14:18:53;0.90;;;0.40;;
47896;SDS011;39629;51.400;5.494;2022-07-09T14:23:55;1.98;;;0.50;;
47896;SDS011;39629;51.400;5.494;2022-07-09T14:28:58;0.90;;;0.50;;
47896;SDS011;39629;51.400;5.494;2022-07-09T14:34:00;1.08;;;0.40;;
47896;SDS011;39629;51.400;5.494;2022-07-09T14:39:02;0.90;;;0.50;;
47896;SDS011;39629;51.400;5.494;2022-07-09T14:44:05;1.98;;;0.50;;
47896;SDS011;39629;51.400;5.494;2022-07-09T14:49:06;2.75;;;0.50;;
47896;SDS011;39629;51.400;5.494;2022-07-09T14:54:08;1.30;;;0.50;;
47896;SDS011;39629;51.400;5.494;2022-07-09T14:59:11;1.57;;;0.40;;
47896;SDS011;39629;51.400;5.494;2022-07-09T15:04:16;1.13;;;0.30;;
47896;SDS011;39629;51.400;5.494;2022-07-09T15:09:18;2.53;;;0.47;;
47896;SDS011;39629;51.400;5.494;2022-07-09T15:14:21;1.25;;;0.40;;
47896;SDS011;39629;51.400;5.494;2022-07-09T15:19:23;1.40;;;0.50;;
47896;SDS011;39629;51.400;5.494;2022-07-09T15:24:24;1.40;;;0.50;;
47896;SDS011;39629;51.400;5.494;2022-07-09T15:29:28;1.95;;;0.50;;
47896;SDS011;39629;51.400;5.494;2022-07-09T15:34:29;1.63;;;0.60;;
47896;SDS011;39629;51.400;5.494;2022-07-09T15:39:31;0.90;;;0.50;;
47896;SDS011;39629;51.400;5.494;2022-07-09T15:44:34;2.10;;;0.60;;
47896;SDS011;39629;51.400;5.494;2022-07-09T15:49:36;1.75;;;0.60;;
47896;SDS011;39629;51.400;5.494;2022-07-09T15:54:37;3.60;;;0.50;;
47896;SDS011;39629;51.400;5.494;2022-07-09T15:59:40;1.85;;;0.70;;
47896;SDS011;39629;51.400;5.494;2022-07-09T16:04:42;3.45;;;0.82;;
47896;SDS011;39629;51.400;5.494;2022-07-09T16:09:43;3.30;;;0.63;;
47896;SDS011;39629;51.400;5.494;2022-07-09T16:14:46;1.95;;;0.70;;
47896;SDS011;39629;51.400;5.494;2022-07-09T16:19:48;1.65;;;0.68;;
47896;SDS011;39629;51.400;5.494;2022-07-09T16:24:50;1.98;;;0.63;;
47896;SDS011;39629;51.400;5.494;2022-07-09T16:29:53;1.00;;;0.57;;
47896;SDS011;39629;51.400;5.494;2022-07-09T16:39:56;1.98;;;0.63;;
47896;SDS011;39629;51.400;5.494;2022-07-09T16:45:00;3.10;;;0.85;;
47896;SDS011;39629;51.400;5.494;2022-07-09T16:50:02;2.55;;;0.90;;
47896;SDS011;39629;51.400;5.494;2022-07-09T16:55:04;2.88;;;0.95;;
47896;SDS011;39629;51.400;5.494;2022-07-09T17:00:08;3.15;;;0.70;;
47896;SDS011;39629;51.400;5.494;2022-07-09T17:05:10;3.25;;;0.70;;
47896;SDS011;39629;51.400;5.494;2022-07-09T17:15:16;3.17;;;0.90;;
47896;SDS011;39629;51.400;5.494;2022-07-09T17:20:17;4.40;;;0.85;;
47896;SDS011;39629;51.400;5.494;2022-07-09T17:25:19;3.75;;;0.90;;
47896;SDS011;39629;51.400;5.494;2022-07-09T17:30:22;3.20;;;0.90;;
47896;SDS011;39629;51.400;5.494;2022-07-09T17:35:25;4.95;;;3.03;;
47896;SDS011;39629;51.400;5.494;2022-07-09T17:40:28;5.75;;;1.05;;
47896;SDS011;39629;51.400;5.494;2022-07-09T17:45:31;2.45;;;0.80;;
47896;SDS011;39629;51.400;5.494;2022-07-09T17:50:33;2.45;;;0.85;;
47896;SDS011;39629;51.400;5.494;2022-07-09T17:55:34;3.72;;;0.90;;
47896;SDS011;39629;51.400;5.494;2022-07-09T18:00:38;3.53;;;1.40;;
47896;SDS011;39629;51.400;5.494;2022-07-09T18:05:40;3.45;;;1.35;;
47896;SDS011;39629;51.400;5.494;2022-07-09T18:10:42;4.30;;;1.00;;
47896;SDS011;39629;51.400;5.494;2022-07-09T18:15:45;3.53;;;1.13;;
47896;SDS011;39629;51.400;5.494;2022-07-09T18:20:47;1.77;;;1.10;;
47896;SDS011;39629;51.400;5.494;2022-07-09T18:25:49;2.10;;;0.90;;
47896;SDS011;39629;51.400;5.494;2022-07-09T18:30:51;2.85;;;1.20;;
47896;SDS011;39629;51.400;5.494;2022-07-09T18:35:55;3.90;;;0.82;;
47896;SDS011;39629;51.400;5.494;2022-07-09T18:40:57;4.43;;;0.82;;
47896;SDS011;39629;51.400;5.494;2022-07-09T18:45:59;2.47;;;0.93;;
47896;SDS011;39629;51.400;5.494;2022-07-09T18:51:01;2.40;;;1.20;;
47896;SDS011;39629;51.400;5.494;2022-07-09T18:56:03;2.67;;;0.90;;
47896;SDS011;39629;51.400;5.494;2022-07-09T19:01:06;1.95;;;0.80;;
47896;SDS011;39629;51.400;5.494;2022-07-09T19:06:08;2.70;;;0.90;;
47896;SDS011;39629;51.400;5.494;2022-07-09T19:11:09;2.53;;;0.80;;
47896;SDS011;39629;51.400;5.494;2022-07-09T19:16:13;2.63;;;0.80;;
47896;SDS011;39629;51.400;5.494;2022-07-09T19:21:15;3.00;;;0.70;;
47896;SDS011;39629;51.400;5.494;2022-07-09T19:26:17;3.17;;;0.90;;
47896;SDS011;39629;51.400;5.494;2022-07-09T19:31:23;3.88;;;0.80;;
47896;SDS011;39629;51.400;5.494;2022-07-09T19:36:43;3.47;;;0.80;;
47896;SDS011;39629;51.400;5.494;2022-07-09T19:41:45;2.78;;;0.80;;
47896;SDS011;39629;51.400;5.494;2022-07-09T19:46:48;3.53;;;0.80;;
47896;SDS011;39629;51.400;5.494;2022-07-09T19:51:50;2.92;;;0.73;;
47896;SDS011;39629;51.400;5.494;2022-07-09T19:56:51;3.17;;;0.70;;
47896;SDS011;39629;51.400;5.494;2022-07-09T20:01:54;2.83;;;0.60;;
47896;SDS011;39629;51.400;5.494;2022-07-09T20:06:57;3.53;;;0.80;;
47896;SDS011;39629;51.400;5.494;2022-07-09T20:11:59;1.80;;;0.80;;
47896;SDS011;39629;51.400;5.494;2022-07-09T20:17:02;2.88;;;0.93;;
47896;SDS011;39629;51.400;5.494;2022-07-09T20:22:03;2.77;;;0.70;;
47896;SDS011;39629;51.400;5.494;2022-07-09T20:27:05;1.67;;;0.70;;
47896;SDS011;39629;51.400;5.494;2022-07-09T20:32:08;2.45;;;0.70;;
47896;SDS011;39629;51.400;5.494;2022-07-09T20:37:10;2.85;;;0.90;;
47896;SDS011;39629;51.400;5.494;2022-07-09T20:42:11;1.98;;;0.80;;
47896;SDS011;39629;51.400;5.494;2022-07-09T20:47:14;4.00;;;0.80;;
47896;SDS011;39629;51.400;5.494;2022-07-09T20:52:16;2.42;;;0.80;;
47896;SDS011;39629;51.400;5.494;2022-07-09T20:57:17;3.72;;;0.70;;
47896;SDS011;39629;51.400;5.494;2022-07-09T21:02:20;2.55;;;0.90;;
47896;SDS011;39629;51.400;5.494;2022-07-09T21:07:22;2.42;;;0.73;;
47896;SDS011;39629;51.400;5.494;2022-07-09T21:12:23;2.83;;;1.08;;
47896;SDS011;39629;51.400;5.494;2022-07-09T21:17:28;2.75;;;0.95;;
47896;SDS011;39629;51.400;5.494;2022-07-09T21:22:47;2.97;;;1.08;;
47896;SDS011;39629;51.400;5.494;2022-07-09T21:27:48;3.00;;;0.85;;
47896;SDS011;39629;51.400;5.494;2022-07-09T21:32:51;5.35;;;0.90;;
47896;SDS011;39629;51.400;5.494;2022-07-09T21:37:53;2.95;;;0.95;;
47896;SDS011;39629;51.400;5.494;2022-07-09T21:42:55;1.38;;;0.80;;
47896;SDS011;39629;51.400;5.494;2022-07-09T21:47:58;2.88;;;0.95;;
47896;SDS011;39629;51.400;5.494;2022-07-09T21:52:59;5.55;;;0.90;;
47896;SDS011;39629;51.400;5.494;2022-07-09T21:58:01;4.50;;;0.82;;
47896;SDS011;39629;51.400;5.494;2022-07-09T22:03:04;2.25;;;0.70;;
47896;SDS011;39629;51.400;5.494;2022-07-09T22:08:05;3.10;;;0.88;;
47896;SDS011;39629;51.400;5.494;2022-07-09T22:13:07;2.45;;;1.13;;
47896;SDS011;39629;51.400;5.494;2022-07-09T22:18:10;4.60;;;1.02;;
47896;SDS011;39629;51.400;5.494;2022-07-09T22:23:12;2.42;;;0.90;;
47896;SDS011;39629;51.400;5.494;2022-07-09T22:28:13;4.07;;;1.10;;
47896;SDS011;39629;51.400;5.494;2022-07-09T22:33:16;1.90;;;1.00;;
47896;SDS011;39629;51.400;5.494;2022-07-09T22:38:18;1.42;;;0.88;;
47896;SDS011;39629;51.400;5.494;2022-07-09T22:43:19;3.08;;;1.10;;
47896;SDS011;39629;51.400;5.494;2022-07-09T22:48:22;3.25;;;1.30;;
47896;SDS011;39629;51.400;5.494;2022-07-09T22:53:24;4.57;;;1.90;;
47896;SDS011;39629;51.400;5.494;2022-07-09T22:58:25;4.70;;;2.08;;
47896;SDS011;39629;51.400;5.494;2022-07-09T23:03:28;6.10;;;2.08;;
47896;SDS011;39629;51.400;5.494;2022-07-09T23:08:30;4.60;;;1.70;;
47896;SDS011;39629;51.400;5.494;2022-07-09T23:13:49;5.07;;;2.00;;
47896;SDS011;39629;51.400;5.494;2022-07-09T23:18:53;4.28;;;1.90;;
47896;SDS011;39629;51.400;5.494;2022-07-09T23:23:54;5.63;;;1.88;;
47896;SDS011;39629;51.400;5.494;2022-07-09T23:28:56;3.42;;;1.55;;
47896;SDS011;39629;51.400;5.494;2022-07-09T23:34:00;2.42;;;1.38;;
47896;SDS011;39629;51.400;5.494;2022-07-09T23:39:02;2.58;;;1.27;;
47896;SDS011;39629;51.400;5.494;2022-07-09T23:44:03;3.92;;;1.30;;
47896;SDS011;39629;51.400;5.494;2022-07-09T23:49:06;6.13;;;1.17;;
47896;SDS011;39629;51.400;5.494;2022-07-09T23:54:08;4.53;;;1.10;;
47896;SDS011;39629;51.400;5.494;2022-07-09T23:59:09;4.07;;;1.00;;
